createdAt,value
2019-05-18T00:00:27.232Z,12.80
2019-05-18T00:02:54.688Z,12.80
2019-05-18T00:05:22.255Z,12.80
2019-05-18T00:07:49.717Z,12.80
2019-05-18T00:10:17.175Z,12.80
2019-05-18T00:12:47.741Z,12.70
2019-05-18T00:15:15.310Z,12.70
2019-05-18T00:17:42.835Z,12.60
2019-05-18T00:20:10.602Z,12.60
2019-05-18T00:22:38.173Z,12.60
2019-05-18T00:25:05.834Z,12.60
2019-05-18T00:27:33.430Z,12.60
2019-05-18T00:30:01.329Z,12.70
2019-05-18T00:32:33.002Z,12.70
2019-05-18T00:35:01.056Z,12.80
2019-05-18T00:37:30.981Z,12.80
2019-05-18T00:39:58.897Z,12.90
2019-05-18T00:42:28.803Z,12.90
2019-05-18T00:44:57.796Z,12.90
2019-05-18T00:47:40.415Z,12.90
2019-05-18T00:50:00.118Z,13.00
2019-05-18T00:52:27.666Z,13.00
2019-05-18T00:54:56.071Z,13.10
2019-05-18T00:57:30.146Z,13.10
2019-05-18T01:00:03.941Z,13.10
2019-05-18T01:02:30.446Z,13.10
2019-05-18T01:05:01.795Z,13.00
2019-05-18T01:07:31.195Z,13.10
2019-05-18T01:10:02.593Z,13.10
2019-05-18T01:12:30.147Z,13.10
2019-05-18T01:14:57.753Z,13.00
2019-05-18T01:17:26.387Z,12.90
2019-05-18T01:19:54.024Z,12.90
2019-05-18T01:22:23.533Z,12.90
2019-05-18T01:24:51.771Z,12.90
2019-05-18T01:27:19.515Z,12.90
2019-05-18T01:29:48.145Z,12.80
2019-05-18T01:32:15.606Z,12.80
2019-05-18T01:34:44.220Z,12.80
2019-05-18T01:37:11.670Z,12.80
2019-05-18T01:39:39.525Z,12.80
2019-05-18T01:42:06.979Z,12.80
2019-05-18T01:44:34.423Z,12.80
2019-05-18T01:47:01.881Z,12.80
2019-05-18T01:49:29.383Z,12.80
2019-05-18T01:51:58.255Z,12.70
2019-05-18T01:54:25.863Z,12.70
2019-05-18T01:56:53.366Z,12.70
2019-05-18T01:59:20.819Z,12.70
2019-05-18T02:01:48.458Z,12.70
2019-05-18T02:04:15.930Z,12.60
2019-05-18T02:06:43.390Z,12.60
2019-05-18T02:09:11.737Z,12.60
2019-05-18T02:11:39.537Z,12.60
2019-05-18T02:14:08.138Z,12.60
2019-05-18T02:16:35.695Z,12.70
2019-05-18T02:19:04.244Z,12.70
2019-05-18T02:21:31.740Z,12.70
2019-05-18T02:23:59.443Z,12.70
2019-05-18T02:26:26.967Z,12.70
2019-05-18T02:28:54.534Z,12.70
2019-05-18T02:31:22.206Z,12.70
2019-05-18T02:33:49.792Z,12.80
2019-05-18T02:36:17.334Z,12.70
2019-05-18T02:38:44.793Z,12.70
2019-05-18T02:41:12.401Z,12.80
2019-05-18T02:43:40.482Z,12.80
2019-05-18T02:46:08.617Z,12.80
2019-05-18T02:48:48.533Z,12.80
2019-05-18T02:51:11.140Z,12.90
2019-05-18T02:53:36.871Z,12.90
2019-05-18T02:56:04.380Z,12.90
2019-05-18T02:58:31.858Z,12.90
2019-05-18T03:00:59.288Z,12.80
2019-05-18T03:03:26.802Z,12.80
2019-05-18T03:05:54.744Z,12.90
2019-05-18T03:08:22.206Z,12.90
2019-05-18T03:10:49.691Z,12.80
2019-05-18T03:13:17.243Z,12.80
2019-05-18T03:15:44.691Z,12.80
2019-05-18T03:18:12.809Z,12.80
2019-05-18T03:20:40.331Z,12.80
2019-05-18T03:23:07.813Z,12.80
2019-05-18T03:25:35.333Z,12.80
2019-05-18T03:28:02.835Z,12.80
2019-05-18T03:30:30.568Z,12.80
2019-05-18T03:32:58.106Z,12.80
2019-05-18T03:35:25.592Z,12.80
2019-05-18T03:37:53.234Z,12.80
2019-05-18T03:40:20.827Z,12.70
2019-05-18T03:42:48.337Z,12.70
2019-05-18T03:45:15.849Z,12.70
2019-05-18T03:47:43.401Z,12.70
2019-05-18T03:50:10.884Z,12.70
2019-05-18T03:52:38.415Z,12.70
2019-05-18T03:55:05.913Z,12.70
2019-05-18T03:57:33.366Z,12.70
2019-05-18T04:00:01.702Z,12.70
2019-05-18T04:02:29.344Z,12.70
2019-05-18T04:04:56.862Z,12.70
2019-05-18T04:07:24.535Z,12.70
2019-05-18T04:09:52.059Z,12.70
2019-05-18T04:12:19.550Z,12.70
2019-05-18T04:14:47.581Z,12.80
2019-05-18T04:17:15.358Z,12.80
2019-05-18T04:19:46.931Z,12.90
2019-05-18T04:22:12.424Z,12.90
2019-05-18T04:24:39.883Z,12.90
2019-05-18T04:27:07.476Z,12.90
2019-05-18T04:29:34.956Z,13.00
2019-05-18T04:32:02.461Z,13.00
2019-05-18T04:34:29.994Z,12.90
2019-05-18T04:36:57.551Z,12.90
2019-05-18T04:39:25.042Z,12.90
2019-05-18T04:41:52.814Z,12.90
2019-05-18T04:44:20.443Z,13.00
2019-05-18T04:46:48.120Z,13.00
2019-05-18T04:49:15.598Z,13.10
2019-05-18T04:51:43.792Z,13.10
2019-05-18T04:54:11.458Z,13.20
2019-05-18T04:56:42.796Z,13.20
2019-05-18T04:59:09.393Z,13.30
2019-05-18T05:01:37.053Z,13.40
2019-05-18T05:04:04.475Z,13.30
2019-05-18T05:06:31.994Z,13.40
2019-05-18T05:08:59.493Z,13.30
2019-05-18T05:11:27.233Z,13.20
2019-05-18T05:13:54.706Z,13.20
2019-05-18T05:16:22.307Z,13.30
2019-05-18T05:18:49.915Z,13.40
2019-05-18T05:21:17.515Z,13.50
2019-05-18T05:23:45.125Z,13.60
2019-05-18T05:26:12.624Z,13.70
2019-05-18T05:28:40.210Z,13.80
2019-05-18T05:31:07.771Z,13.90
2019-05-18T05:33:35.254Z,14.00
2019-05-18T05:36:02.812Z,14.10
2019-05-18T05:38:30.305Z,14.20
2019-05-18T05:40:57.765Z,14.20
2019-05-18T05:43:25.295Z,14.30
2019-05-18T05:45:52.882Z,14.40
2019-05-18T05:48:20.350Z,14.40
2019-05-18T05:50:47.877Z,14.50
2019-05-18T05:53:15.420Z,14.60
2019-05-18T05:55:43.194Z,14.70
2019-05-18T05:58:10.805Z,14.80
2019-05-18T06:00:38.262Z,14.90
2019-05-18T06:03:05.869Z,15.00
2019-05-18T06:05:33.380Z,15.10
2019-05-18T06:08:00.884Z,15.20
2019-05-18T06:10:29.462Z,15.20
2019-05-18T06:12:57.081Z,15.20
2019-05-18T06:15:24.589Z,15.30
2019-05-18T06:17:52.150Z,15.30
2019-05-18T06:20:19.626Z,15.40
2019-05-18T06:22:47.235Z,15.40
2019-05-18T06:25:15.851Z,15.40
2019-05-18T06:27:43.622Z,15.50
2019-05-18T06:30:11.286Z,15.50
2019-05-18T06:32:38.743Z,15.60
2019-05-18T06:35:06.909Z,15.70
2019-05-18T06:37:34.407Z,15.80
2019-05-18T06:40:03.320Z,15.80
2019-05-18T06:42:30.833Z,15.90
2019-05-18T06:44:58.299Z,15.90
2019-05-18T06:47:28.470Z,16.10
2019-05-18T06:49:56.126Z,16.10
2019-05-18T06:52:23.617Z,16.20
2019-05-18T06:54:51.104Z,16.30
2019-05-18T06:57:19.214Z,16.50
2019-05-18T06:59:46.878Z,16.50
2019-05-18T07:02:14.330Z,16.60
2019-05-18T07:04:44.611Z,16.70
2019-05-18T07:07:12.405Z,16.80
2019-05-18T07:09:40.303Z,16.90
2019-05-18T07:12:07.847Z,17.00
2019-05-18T07:14:36.168Z,17.20
2019-05-18T07:17:05.306Z,17.30
2019-05-18T07:19:32.977Z,17.50
2019-05-18T07:22:00.596Z,17.80
2019-05-18T07:24:28.205Z,18.00
2019-05-18T07:26:55.769Z,18.20
2019-05-18T07:29:23.326Z,18.30
2019-05-18T07:31:51.172Z,18.50
2019-05-18T07:34:18.650Z,18.60
2019-05-18T07:36:46.128Z,18.70
2019-05-18T07:39:13.614Z,18.90
2019-05-18T07:41:46.674Z,19.00
2019-05-18T07:44:11.154Z,19.00
2019-05-18T07:46:38.665Z,19.10
2019-05-18T07:49:06.265Z,19.20
2019-05-18T07:51:36.955Z,19.30
2019-05-18T07:54:03.297Z,19.40
2019-05-18T07:56:30.891Z,19.20
2019-05-18T07:58:58.442Z,19.10
2019-05-18T08:01:25.918Z,19.00
2019-05-18T08:03:53.401Z,19.10
2019-05-18T08:06:20.949Z,19.10
2019-05-18T08:08:48.678Z,19.20
2019-05-18T08:11:16.213Z,19.30
2019-05-18T08:13:43.879Z,19.40
2019-05-18T08:16:11.386Z,19.50
2019-05-18T08:18:39.041Z,19.60
2019-05-18T08:21:09.055Z,19.70
2019-05-18T08:23:39.820Z,19.80
2019-05-18T08:26:07.535Z,19.90
2019-05-18T08:28:35.108Z,20.00
2019-05-18T08:31:02.629Z,20.10
2019-05-18T08:33:30.135Z,20.20
2019-05-18T08:35:57.650Z,20.30
2019-05-18T08:38:25.231Z,20.40
2019-05-18T08:40:52.693Z,20.40
2019-05-18T08:43:21.341Z,20.40
2019-05-18T08:45:48.877Z,20.40
2019-05-18T08:48:16.543Z,20.10
2019-05-18T08:50:44.176Z,20.10
2019-05-18T08:53:11.657Z,20.10
2019-05-18T08:55:39.440Z,20.20
2019-05-18T08:58:06.949Z,20.40
2019-05-18T09:00:34.624Z,20.60
2019-05-18T09:03:02.414Z,20.70
2019-05-18T09:05:30.195Z,20.90
2019-05-18T09:07:58.046Z,21.10
2019-05-18T09:10:25.577Z,21.40
2019-05-18T09:12:53.754Z,21.50
2019-05-18T09:15:21.839Z,21.60
2019-05-18T09:17:49.524Z,21.80
2019-05-18T09:20:17.541Z,21.90
2019-05-18T09:22:45.221Z,22.10
2019-05-18T09:25:13.377Z,22.30
2019-05-18T09:27:41.365Z,22.40
2019-05-18T09:30:09.302Z,22.50
2019-05-18T09:32:37.221Z,22.70
2019-05-18T09:35:05.895Z,22.90
2019-05-18T09:37:33.537Z,23.10
2019-05-18T09:40:01.148Z,23.20
2019-05-18T09:42:29.082Z,23.30
2019-05-18T09:44:56.583Z,23.30
2019-05-18T09:47:24.169Z,23.40
2019-05-18T09:49:51.837Z,23.50
2019-05-18T09:52:19.312Z,23.60
2019-05-18T09:54:47.832Z,23.90
2019-05-18T09:57:15.384Z,24.20
2019-05-18T09:59:42.869Z,24.60
2019-05-18T10:02:10.477Z,24.70
2019-05-18T10:04:41.222Z,25.10
2019-05-18T10:07:08.813Z,25.40
2019-05-18T10:09:39.213Z,25.60
2019-05-18T10:12:06.932Z,25.70
2019-05-18T10:14:34.478Z,25.60
2019-05-18T10:17:02.048Z,25.70
2019-05-18T10:19:29.906Z,25.80
2019-05-18T10:21:57.563Z,26.10
2019-05-18T10:24:25.258Z,26.30
2019-05-18T10:26:52.925Z,26.30
2019-05-18T10:29:20.685Z,26.50
2019-05-18T10:31:48.210Z,26.50
2019-05-18T10:34:15.833Z,26.60
2019-05-18T10:36:43.321Z,26.80
2019-05-18T10:39:10.865Z,26.90
2019-05-18T10:41:38.338Z,27.00
2019-05-18T10:44:05.854Z,26.90
2019-05-18T10:46:33.502Z,26.90
2019-05-18T10:49:01.222Z,27.00
2019-05-18T10:51:28.925Z,27.40
2019-05-18T10:53:56.457Z,27.60
2019-05-18T10:56:23.943Z,28.00
2019-05-18T10:58:52.047Z,28.20
2019-05-18T11:01:19.834Z,28.30
2019-05-18T11:03:47.538Z,28.30
2019-05-18T11:06:15.127Z,28.20
2019-05-18T11:08:42.656Z,28.30
2019-05-18T11:11:10.114Z,28.20
2019-05-18T11:13:37.790Z,28.50
2019-05-18T11:16:07.237Z,28.70
2019-05-18T11:18:34.765Z,28.90
2019-05-18T11:21:02.280Z,29.20
2019-05-18T11:23:42.783Z,29.30
2019-05-18T11:26:00.141Z,29.60
2019-05-18T11:28:29.120Z,29.60
2019-05-18T11:30:57.022Z,29.80
2019-05-18T11:33:24.663Z,29.90
2019-05-18T11:35:52.283Z,30.20
2019-05-18T11:38:19.822Z,30.50
2019-05-18T11:40:47.373Z,30.70
2019-05-18T11:43:14.889Z,30.90
2019-05-18T11:45:42.875Z,30.60
2019-05-18T11:48:10.458Z,30.40
2019-05-18T11:50:38.017Z,30.10
2019-05-18T11:53:05.650Z,29.70
2019-05-18T11:55:33.508Z,29.20
2019-05-18T11:58:01.320Z,29.00
2019-05-18T12:00:28.989Z,28.60
2019-05-18T12:02:56.650Z,28.40
2019-05-18T12:05:24.230Z,28.00
2019-05-18T12:07:52.492Z,27.60
2019-05-18T12:10:22.028Z,27.10
2019-05-18T12:12:49.657Z,26.30
2019-05-18T12:15:17.395Z,25.50
2019-05-18T12:17:44.864Z,24.80
2019-05-18T12:20:14.146Z,24.10
2019-05-18T12:22:41.670Z,23.70
2019-05-18T12:25:09.341Z,23.20
2019-05-18T12:27:36.867Z,22.80
2019-05-18T12:30:05.447Z,22.70
2019-05-18T12:32:33.072Z,22.60
2019-05-18T12:35:00.678Z,22.30
2019-05-18T12:37:28.277Z,22.00
2019-05-18T12:39:55.746Z,21.90
2019-05-18T12:42:23.283Z,21.80
2019-05-18T12:44:50.765Z,21.80
2019-05-18T12:47:18.265Z,21.80
2019-05-18T12:49:45.776Z,21.80
2019-05-18T12:52:13.646Z,21.80
2019-05-18T12:54:46.390Z,21.90
2019-05-18T12:57:10.857Z,22.10
2019-05-18T12:59:38.394Z,22.30
2019-05-18T13:02:06.060Z,22.40
2019-05-18T13:04:33.562Z,22.60
2019-05-18T13:07:01.130Z,22.70
2019-05-18T13:09:28.901Z,22.90
2019-05-18T13:11:56.477Z,22.90
2019-05-18T13:14:24.127Z,22.90
2019-05-18T13:16:51.727Z,22.90
2019-05-18T13:19:19.491Z,22.90
2019-05-18T13:21:47.302Z,22.90
2019-05-18T13:24:14.959Z,22.90
2019-05-18T13:26:42.538Z,22.70
2019-05-18T13:29:10.033Z,22.70
2019-05-18T13:31:37.571Z,22.70
2019-05-18T13:34:05.671Z,22.80
2019-05-18T13:36:33.220Z,22.80
2019-05-18T13:39:00.762Z,22.80
2019-05-18T13:41:28.346Z,22.80
2019-05-18T13:43:55.946Z,22.80
2019-05-18T13:46:23.421Z,22.70
2019-05-18T13:48:50.924Z,22.70
2019-05-18T13:51:18.378Z,22.60
2019-05-18T13:53:45.931Z,22.20
2019-05-18T13:56:13.388Z,21.40
2019-05-18T13:58:40.976Z,20.30
2019-05-18T14:01:09.040Z,19.40
2019-05-18T14:03:36.738Z,18.40
2019-05-18T14:06:04.216Z,17.90
2019-05-18T14:08:31.704Z,17.30
2019-05-18T14:10:59.186Z,17.00
2019-05-18T14:13:27.001Z,16.60
2019-05-18T14:15:55.017Z,16.00
2019-05-18T14:18:22.713Z,15.60
2019-05-18T14:20:50.190Z,15.30
2019-05-18T14:23:17.763Z,15.00
2019-05-18T14:25:46.187Z,14.80
2019-05-18T14:28:13.897Z,14.70
2019-05-18T14:30:41.341Z,14.70
2019-05-18T14:33:08.825Z,14.70
2019-05-18T14:35:36.313Z,14.90
2019-05-18T14:38:03.759Z,15.00
2019-05-18T14:40:31.315Z,15.10
2019-05-18T14:42:58.750Z,15.20
2019-05-18T14:45:26.203Z,15.40
2019-05-18T14:47:53.788Z,15.40
2019-05-18T14:50:21.480Z,15.50
2019-05-18T14:52:49.238Z,15.60
2019-05-18T14:55:16.797Z,15.70
2019-05-18T14:57:44.459Z,15.80
2019-05-18T15:00:12.530Z,15.80
2019-05-18T15:02:40.071Z,15.90
2019-05-18T15:05:08.154Z,16.10
2019-05-18T15:07:35.595Z,16.40
2019-05-18T15:10:03.533Z,16.60
2019-05-18T15:12:31.090Z,16.80
2019-05-18T15:14:58.588Z,17.10
2019-05-18T15:17:26.045Z,17.20
2019-05-18T15:19:53.643Z,17.30
2019-05-18T15:22:21.073Z,17.60
2019-05-18T15:24:48.649Z,17.80
2019-05-18T15:27:16.200Z,18.00
2019-05-18T15:29:43.959Z,18.30
2019-05-18T15:32:11.566Z,18.40
2019-05-18T15:34:39.065Z,18.30
2019-05-18T15:37:06.585Z,18.30
2019-05-18T15:39:34.048Z,18.20
2019-05-18T15:42:01.512Z,18.00
2019-05-18T15:44:29.317Z,17.90
2019-05-18T15:46:56.966Z,17.70
2019-05-18T15:49:24.395Z,17.70
2019-05-18T15:51:51.844Z,17.50
2019-05-18T15:54:19.570Z,17.50
2019-05-18T15:56:47.385Z,17.60
2019-05-18T15:59:14.970Z,17.60
2019-05-18T16:01:42.500Z,17.70
2019-05-18T16:04:10.269Z,17.80
2019-05-18T16:06:37.868Z,17.90
2019-05-18T16:09:06.183Z,18.00
2019-05-18T16:11:34.475Z,18.10
2019-05-18T16:14:02.171Z,18.10
2019-05-18T16:16:29.741Z,18.20
2019-05-18T16:18:57.180Z,18.30
2019-05-18T16:21:24.740Z,18.40
2019-05-18T16:23:52.561Z,18.40
2019-05-18T16:26:21.888Z,18.40
2019-05-18T16:28:49.592Z,18.40
2019-05-18T16:31:17.065Z,18.40
2019-05-18T16:33:44.936Z,18.50
2019-05-18T16:36:12.656Z,18.50
2019-05-18T16:38:40.396Z,18.50
2019-05-18T16:41:08.090Z,18.60
2019-05-18T16:43:35.646Z,18.70
2019-05-18T16:46:03.091Z,18.70
2019-05-18T16:48:30.660Z,18.80
2019-05-18T16:50:58.121Z,18.80
2019-05-18T16:53:25.801Z,18.80
2019-05-18T16:55:53.244Z,18.80
2019-05-18T16:58:20.752Z,18.80
2019-05-18T17:00:48.635Z,18.80
2019-05-18T17:03:16.121Z,18.70
2019-05-18T17:05:43.855Z,18.70
2019-05-18T17:08:11.388Z,18.70
2019-05-18T17:10:38.901Z,18.70
2019-05-18T17:13:06.362Z,18.60
2019-05-18T17:15:33.839Z,18.50
2019-05-18T17:18:01.274Z,18.40
2019-05-18T17:20:29.108Z,18.30
2019-05-18T17:22:56.723Z,18.20
2019-05-18T17:25:24.264Z,18.10
2019-05-18T17:27:51.793Z,18.00
2019-05-18T17:30:19.570Z,17.90
2019-05-18T17:32:47.166Z,17.90
2019-05-18T17:35:14.854Z,17.80
2019-05-18T17:37:42.579Z,17.80
2019-05-18T17:40:10.322Z,17.70
2019-05-18T17:42:37.868Z,17.70
2019-05-18T17:45:06.656Z,17.60
2019-05-18T17:47:34.124Z,17.50
2019-05-18T17:50:01.738Z,17.40
2019-05-18T17:52:29.151Z,17.30
2019-05-18T17:54:57.530Z,17.20
2019-05-18T17:57:25.194Z,17.10
2019-05-18T17:59:52.773Z,17.00
2019-05-18T18:02:20.425Z,17.00
2019-05-18T18:04:48.070Z,16.90
2019-05-18T18:07:15.523Z,16.70
2019-05-18T18:09:43.090Z,16.30
2019-05-18T18:12:11.134Z,16.10
2019-05-18T18:14:38.743Z,16.00
2019-05-18T18:17:06.340Z,16.00
2019-05-18T18:19:33.762Z,16.00
2019-05-18T18:22:01.182Z,16.00
2019-05-18T18:24:28.916Z,16.10
2019-05-18T18:26:56.486Z,16.10
2019-05-18T18:29:23.988Z,16.10
2019-05-18T18:31:51.498Z,16.10
2019-05-18T18:34:38.247Z,16.20
2019-05-18T18:37:08.931Z,16.20
2019-05-18T18:39:36.402Z,16.10
2019-05-18T18:42:03.879Z,16.10
2019-05-18T18:44:31.498Z,16.10
2019-05-18T18:46:59.023Z,16.00
2019-05-18T18:49:26.510Z,16.10
2019-05-18T18:51:53.976Z,16.00
2019-05-18T18:54:21.464Z,16.00
2019-05-18T18:56:49.008Z,16.00
2019-05-18T18:59:16.674Z,15.90
2019-05-18T19:01:44.278Z,15.80
2019-05-18T19:04:11.794Z,15.80
2019-05-18T19:06:39.320Z,15.70
2019-05-18T19:09:07.003Z,15.70
2019-05-18T19:11:35.149Z,15.70
2019-05-18T19:14:03.444Z,15.80
2019-05-18T19:16:30.998Z,15.70
2019-05-18T19:18:58.445Z,15.70
2019-05-18T19:21:25.998Z,15.70
2019-05-18T19:23:53.390Z,15.70
2019-05-18T19:26:20.954Z,15.70
2019-05-18T19:28:48.488Z,15.70
2019-05-18T19:31:15.927Z,15.70
2019-05-18T19:33:43.501Z,15.60
2019-05-18T19:36:10.987Z,15.60
2019-05-18T19:38:38.534Z,15.50
2019-05-18T19:41:06.078Z,15.50
2019-05-18T19:43:33.581Z,15.50
2019-05-18T19:46:01.064Z,15.40
2019-05-18T19:48:28.594Z,15.40
2019-05-18T19:50:56.065Z,15.40
2019-05-18T19:53:23.574Z,15.30
2019-05-18T19:55:51.278Z,15.30
2019-05-18T19:58:19.955Z,15.30
2019-05-18T20:00:47.492Z,15.30
2019-05-18T20:03:15.153Z,15.20
2019-05-18T20:05:42.609Z,15.20
2019-05-18T20:08:10.046Z,15.20
2019-05-18T20:10:37.561Z,15.10
2019-05-18T20:13:05.078Z,15.00
2019-05-18T20:15:32.640Z,15.00
2019-05-18T20:18:00.122Z,14.90
2019-05-18T20:20:27.584Z,14.90
2019-05-18T20:22:55.175Z,14.80
2019-05-18T20:25:22.657Z,14.70
2019-05-18T20:27:50.171Z,14.70
2019-05-18T20:30:17.720Z,14.70
2019-05-18T20:32:45.174Z,14.60
2019-05-18T20:35:12.680Z,14.60
2019-05-18T20:37:40.384Z,14.60
2019-05-18T20:40:08.199Z,14.60
2019-05-18T20:42:37.689Z,14.50
2019-05-18T20:45:05.243Z,14.50
2019-05-18T20:47:33.198Z,14.40
2019-05-18T20:50:00.748Z,14.40
2019-05-18T20:52:28.221Z,14.40
2019-05-18T20:54:55.669Z,14.40
2019-05-18T20:57:23.145Z,14.30
2019-05-18T20:59:50.671Z,14.30
2019-05-18T21:02:18.192Z,14.20
2019-05-18T21:04:45.662Z,14.20
2019-05-18T21:07:13.141Z,14.20
2019-05-18T21:09:41.738Z,14.20
2019-05-18T21:12:09.426Z,14.20
2019-05-18T21:14:56.354Z,14.10
2019-05-18T21:17:23.861Z,14.00
2019-05-18T21:19:51.420Z,14.00
2019-05-18T21:22:20.086Z,14.00
2019-05-18T21:24:47.582Z,14.00
2019-05-18T21:27:15.141Z,13.90
2019-05-18T21:29:42.583Z,13.90
2019-05-18T21:32:10.074Z,13.90
2019-05-18T21:34:37.534Z,13.90
2019-05-18T21:37:05.076Z,13.90
2019-05-18T21:39:32.550Z,13.90
2019-05-18T21:42:03.138Z,13.80
2019-05-18T21:44:30.816Z,13.70
2019-05-18T21:46:58.306Z,13.70
2019-05-18T21:49:25.743Z,13.70
2019-05-18T21:51:53.638Z,13.70
2019-05-18T21:54:21.098Z,13.60
2019-05-18T21:56:48.604Z,13.50
2019-05-18T21:59:16.030Z,13.50
2019-05-18T22:01:44.702Z,13.50
2019-05-18T22:04:12.416Z,13.50
2019-05-18T22:06:40.167Z,13.40
2019-05-18T22:09:07.647Z,13.40
2019-05-18T22:11:35.345Z,13.40
2019-05-18T22:14:03.674Z,13.30
2019-05-18T22:16:31.149Z,13.30
2019-05-18T22:18:58.725Z,13.30
2019-05-18T22:21:26.430Z,13.30
2019-05-18T22:23:53.976Z,13.20
2019-05-18T22:26:21.686Z,13.20
2019-05-18T22:28:49.268Z,13.10
2019-05-18T22:31:19.486Z,13.10
2019-05-18T22:33:46.405Z,13.00
2019-05-18T22:36:13.832Z,12.90
2019-05-18T22:38:42.174Z,12.90
2019-05-18T22:41:09.714Z,12.80
2019-05-18T22:43:37.267Z,12.80
2019-05-18T22:46:04.677Z,12.70
2019-05-18T22:48:41.464Z,12.70
2019-05-18T22:51:01.682Z,12.60
2019-05-18T22:53:29.130Z,12.60
2019-05-18T22:55:56.568Z,12.50
2019-05-18T22:58:24.087Z,12.50
2019-05-18T23:00:51.514Z,12.40
2019-05-18T23:03:18.977Z,12.40
2019-05-18T23:05:46.461Z,12.40
2019-05-18T23:08:13.894Z,12.50
2019-05-18T23:10:41.444Z,12.50
2019-05-18T23:13:08.889Z,12.60
